Wautoma, WI

7:43 PM CDT on September 18, 2014 (GMT -0500)
Mt. Morris Township | Change Station
CLOSE
Current Station
Personal Weather Station
Location: Wautoma, WI
Elevation: 912 ft
Nearby Weather Stations

Elev 912 ft 44.08 °N, 89.21 °W | Updated 6 minutes ago

Clear
Clear
52.3 °F
Feels Like 52.3 °F
N
0.0
Wind Variable Wind from SE

Today
High -- | Low -- °F
--% Chance of Precip.
Yesterday
High -- | Low -- °F
Precip. -- in
6:39 AM 7:01 PM
Waning Crescent, 23% visible
Pressure 30.12 in
Visibility 10.0 miles
Clouds Clear
Dew Point 50 °F
Humidity 93%
Rainfall 0.00 in
Snow Depth Not available.
UV 0 out of 12
Pollen 4.00 out of 12
Air Quality Not available.
Flu Activity Not available.
METAR KY50 182356Z AUTO 00000KT 10SM CLR 14/11 A3012 RMK AO2

More Conditions Fewer Conditions

Pressure 30.12 in
Visibility 10.0 miles
Clouds Clear
Dew Point 50 °F
Humidity 93%
Rainfall 0.00 in
Snow Depth Not available.
UV 0 out of 12
Pollen 4.00 out of 12
Air Quality Not available.
Flu Activity Not available.
METAR KY50 182356Z AUTO 00000KT 10SM CLR 14/11 A3012 RMK AO2

More Conditions Fewer Conditions

10-Day Weather Forecast

Almanac

Astronomy

Sep. 18, 2014 Rise Set
Actual Time 6:39 AM CDT 7:01 PM CDT
Civil Twilight 6:10 AM CDT 7:30 PM CDT
Nautical Twilight 5:36 AM CDT 8:04 PM CDT
Astronomical Twilight 5:01 AM CDT 8:39 PM CDT
Moon 1:23 AM CDT (9/18) 4:00 PM CDT (9/18)
Length of Visible Light 13h 20m
Length of Day
12h 22m
Tomorrow will be 3m 0s shorter.
Waning Crescent, 23% of the Moon is Illuminated
Today
Waning Crescent
Sep 24
New
Oct 1
First Quarter
Oct 8
Full
Oct 15
Last Quarter

Today's Extremes

State Highs State Lows

Community

WunderPhotos

Upload Photos

1,754,510 photos uploaded!

WunderBlogs® & News

Nearby

Snow Depth

Station Depth Elevation
No new snow has been reported.

Earthquake Activity

City Distance Mag. Time & Date
No recent earthquake activity has been reported nearby.
Minimum magnitude displayed is 2.5.

Coastal Water Temperatures

Place Temperature
No Stations Reporting

Nearby Weather Stations